Terminal Aerodrome Forecast
Issued by NWS

Home | Current Version | Previous Version | Text Only | Print | Product List | Glossary On
Versions: 1 2 3 4 5 6 7 8 9 10 11 12 13 14
000
FTAK31 PAJN 251133
TAFAJN
TAF
PAJN 251133Z 2512/2612 10008KT P6SM SCT025 OVC040
      TEMPO 2512/2514 BKN025 OVC040
     FM251400 10010KT P6SM -RA BKN025 OVC040
     FM252100 11010G18KT P6SM -RA SCT025 OVC040
     FM260300 10007KT P6SM -RA SCT025 OVC040=

USA.gov is the U.S. government's official web portal to all federal, state and local government web resources and services.